Time;durP1;ratioP1;P1;durP2;ratioP2;P2;SDS_P1;SDS_P2;PMS_P1;PMS_P2;Temp;Humidity;BMP_temperature;BMP_pressure;BME280_temperature;BME280_humidity;BME280_pressure;Samples;Min_cycle;Max_cycle;Signal;HPM_P1;HPM_P2
2021/06/28 00:00:32;;;;;;;;;6.00;5.25;;;;;;;;5050478;28;48149;-82
2021/06/28 00:02:58;;;;;;;;;7.25;5.50;;;;;;;;5049757;28;45545;-83
2021/06/28 00:05:23;;;;;;;;;5.00;5.00;;;;;;;;5046267;28;45700;-80
2021/06/28 00:07:49;;;;;;;;;5.75;5.00;;;;;;;;5051908;28;45751;-80
2021/06/28 00:10:16;;;;;;;;;5.00;5.00;;;;;;;;5060094;28;47611;-80
2021/06/28 00:12:41;;;;;;;;;5.75;4.25;;;;;;;;5052800;28;45489;-81
2021/06/28 00:15:08;;;;;;;;;4.00;4.00;;;;;;;;5052798;28;45332;-82
2021/06/28 00:17:34;;;;;;;;;4.25;4.00;;;;;;;;5048751;28;45515;-82
2021/06/28 00:19:59;;;;;;;;;4.00;4.00;;;;;;;;5048390;28;45616;-82
2021/06/28 00:22:24;;;;;;;;;6.00;5.00;;;;;;;;5051729;28;45334;-82
2021/06/28 00:24:49;;;;;;;;;6.67;5.00;;;;;;;;5053711;28;45669;-80
2021/06/28 00:27:15;;;;;;;;;6.00;5.00;;;;;;;;5051168;28;45467;-82
2021/06/28 00:29:40;;;;;;;;;5.00;4.25;;;;;;;;5050687;28;45528;-78
2021/06/28 00:32:06;;;;;;;;;2.75;2.75;;;;;;;;5049678;28;45387;-82
2021/06/28 00:34:31;;;;;;;;;6.50;3.50;;;;;;;;5049534;28;45524;-79
2021/06/28 00:36:57;;;;;;;;;4.00;3.33;;;;;;;;5051152;28;45593;-81
2021/06/28 00:39:22;;;;;;;;;5.25;4.00;;;;;;;;5053938;28;48103;-81
2021/06/28 00:41:48;;;;;;;;;4.50;4.25;;;;;;;;5051265;28;45350;-82
2021/06/28 00:44:13;;;;;;;;;6.00;4.00;;;;;;;;5052666;28;45406;-81
2021/06/28 00:46:38;;;;;;;;;4.67;4.33;;;;;;;;5062367;28;45570;-82
2021/06/28 00:49:03;;;;;;;;;4.00;4.00;;;;;;;;5055846;28;46132;-82
2021/06/28 00:51:28;;;;;;;;;4.33;3.33;;;;;;;;5059946;28;45396;-82
2021/06/28 00:53:54;;;;;;;;;5.33;4.33;;;;;;;;5057603;28;45450;-82
2021/06/28 00:56:19;;;;;;;;;5.25;5.25;;;;;;;;5056975;28;45338;-82
2021/06/28 00:58:45;;;;;;;;;5.00;4.00;;;;;;;;5057826;28;45461;-81
2021/06/28 01:01:11;;;;;;;;;5.00;4.50;;;;;;;;5057266;28;45474;-81
2021/06/28 01:03:37;;;;;;;;;4.00;4.00;;;;;;;;5060197;28;45441;-82
2021/06/28 01:06:03;;;;;;;;;6.00;4.75;;;;;;;;5057399;28;45346;-82
2021/06/28 01:08:28;;;;;;;;;6.50;4.75;;;;;;;;5055285;28;48242;-82
2021/06/28 01:10:54;;;;;;;;;4.00;4.00;;;;;;;;5058629;28;45314;-85
2021/06/28 01:13:19;;;;;;;;;3.75;3.75;;;;;;;;5057742;28;45386;-82
2021/06/28 01:15:44;;;;;;;;;3.00;3.00;;;;;;;;5059692;28;45466;-82
2021/06/28 01:18:10;;;;;;;;;5.00;4.00;;;;;;;;5055011;28;46669;-81
2021/06/28 01:20:35;;;;;;;;;4.00;3.75;;;;;;;;5054496;28;45474;-82
2021/06/28 01:23:17;;;;;;;;;4.50;3.00;;;;;;;;5056601;28;45470;-83
2021/06/28 01:25:43;;;;;;;;;3.25;3.25;;;;;;;;5051760;28;45421;-80
2021/06/28 01:28:08;;;;;;;;;2.50;2.50;;;;;;;;5055417;28;47162;-81
2021/06/28 01:30:34;;;;;;;;;2.50;2.50;;;;;;;;5055082;28;45388;-81
2021/06/28 01:32:59;;;;;;;;;2.00;2.00;;;;;;;;5052790;28;45504;-79
2021/06/28 01:35:24;;;;;;;;;1.75;1.00;;;;;;;;5056874;28;45414;-81
2021/06/28 01:37:50;;;;;;;;;3.00;2.00;;;;;;;;5056524;28;49203;-81
2021/06/28 01:40:16;;;;;;;;;1.25;1.25;;;;;;;;5067400;28;45427;-82
2021/06/28 01:42:42;;;;;;;;;2.00;1.50;;;;;;;;5059147;28;45401;-81
2021/06/28 01:45:09;;;;;;;;;2.00;2.00;;;;;;;;5058324;28;45527;-81
2021/06/28 01:47:35;;;;;;;;;1.00;1.00;;;;;;;;5055018;28;46211;-80
2021/06/28 01:50:00;;;;;;;;;1.25;1.25;;;;;;;;5057200;28;45558;-82
2021/06/28 01:52:25;;;;;;;;;1.00;1.00;;;;;;;;5054757;28;45683;-83
2021/06/28 01:54:51;;;;;;;;;2.00;0.67;;;;;;;;5057996;28;45327;-84
2021/06/28 01:57:16;;;;;;;;;2.00;2.00;;;;;;;;5056237;28;45559;-83
2021/06/28 01:59:41;;;;;;;;;1.25;1.25;;;;;;;;5053137;28;45354;-82
2021/06/28 02:02:07;;;;;;;;;1.33;1.00;;;;;;;;5054001;28;45345;-81
2021/06/28 02:04:32;;;;;;;;;3.00;1.50;;;;;;;;5053875;28;45607;-81
2021/06/28 02:06:58;;;;;;;;;4.00;1.00;;;;;;;;5054220;28;45557;-80
2021/06/28 02:09:24;;;;;;;;;1.00;1.00;;;;;;;;5052271;28;45627;-80
2021/06/28 02:11:50;;;;;;;;;1.00;1.00;;;;;;;;5051971;28;45701;-82
2021/06/28 02:14:16;;;;;;;;;0.75;0.75;;;;;;;;5053841;28;45381;-82
2021/06/28 02:16:42;;;;;;;;;2.00;2.00;;;;;;;;5051770;28;46105;-82
2021/06/28 02:19:07;;;;;;;;;2.00;2.00;;;;;;;;5055900;28;45492;-82
2021/06/28 02:21:32;;;;;;;;;5.00;1.33;;;;;;;;5053197;28;45329;-82
2021/06/28 02:23:57;;;;;;;;;1.00;1.00;;;;;;;;5053113;28;45546;-80
2021/06/28 02:26:23;;;;;;;;;1.00;1.00;;;;;;;;5052529;28;46146;-83
2021/06/28 02:28:48;;;;;;;;;2.75;1.25;;;;;;;;5053057;28;45628;-82
2021/06/28 02:31:15;;;;;;;;;2.00;2.00;;;;;;;;5049519;28;45446;-84
2021/06/28 02:33:41;;;;;;;;;1.25;1.25;;;;;;;;5044154;28;45352;-83
2021/06/28 02:36:07;;;;;;;;;1.00;1.00;;;;;;;;5053379;28;45904;-83
2021/06/28 02:38:32;;;;;;;;;3.50;1.00;;;;;;;;5052122;28;45473;-84
2021/06/28 02:40:58;;;;;;;;;3.00;2.00;;;;;;;;5054181;28;45499;-81
2021/06/28 02:43:23;;;;;;;;;2.75;2.00;;;;;;;;5063606;28;45420;-84
2021/06/28 02:45:49;;;;;;;;;2.00;2.00;;;;;;;;5055268;28;46275;-80
2021/06/28 02:48:14;;;;;;;;;2.00;2.00;;;;;;;;5058143;28;45522;-80
2021/06/28 02:50:39;;;;;;;;;5.67;3.00;;;;;;;;5058200;28;45501;-80
2021/06/28 02:53:05;;;;;;;;;1.00;1.00;;;;;;;;5069321;27;45672;-79
2021/06/28 02:55:30;;;;;;;;;1.25;1.25;;;;;;;;5063681;28;45842;-80
2021/06/28 02:57:56;;;;;;;;;2.00;2.00;;;;;;;;5065547;28;45316;-80
2021/06/28 03:00:21;;;;;;;;;3.00;2.00;;;;;;;;5053608;28;45541;-80
2021/06/28 03:02:46;;;;;;;;;2.00;2.00;;;;;;;;5055726;28;45419;-81
2021/06/28 03:05:12;;;;;;;;;2.00;2.00;;;;;;;;5053462;28;45513;-81
2021/06/28 03:07:37;;;;;;;;;2.00;1.00;;;;;;;;5064125;28;45417;-79
2021/06/28 03:10:07;;;;;;;;;3.25;2.00;;;;;;;;5054158;28;45394;-81
2021/06/28 03:12:32;;;;;;;;;5.00;2.25;;;;;;;;5054619;28;45299;-81
2021/06/28 03:14:57;;;;;;;;;2.00;2.00;;;;;;;;5055296;28;45300;-80
2021/06/28 03:17:23;;;;;;;;;2.00;2.00;;;;;;;;5055720;28;45314;-81
2021/06/28 03:19:48;;;;;;;;;4.00;2.00;;;;;;;;5055431;28;45557;-82
2021/06/28 03:22:16;;;;;;;;;2.00;2.00;;;;;;;;5051169;28;45630;-81
2021/06/28 03:24:41;;;;;;;;;1.75;1.75;;;;;;;;5043386;28;47531;-81
2021/06/28 03:27:06;;;;;;;;;4.00;2.00;;;;;;;;5056047;28;45442;-81
2021/06/28 03:29:31;;;;;;;;;3.00;2.00;;;;;;;;5054915;28;45426;-82
2021/06/28 03:31:57;;;;;;;;;2.00;2.00;;;;;;;;5054481;28;45473;-80
2021/06/28 03:34:22;;;;;;;;;2.00;2.00;;;;;;;;5062707;28;47336;-80
2021/06/28 03:36:47;;;;;;;;;3.00;2.67;;;;;;;;5064445;28;45535;-80
2021/06/28 03:39:12;;;;;;;;;4.00;2.33;;;;;;;;5054203;28;45303;-81
2021/06/28 03:41:38;;;;;;;;;3.25;2.00;;;;;;;;5053101;28;45456;-82
2021/06/28 03:44:04;;;;;;;;;2.00;2.00;;;;;;;;5062775;28;47179;-86
2021/06/28 03:46:29;;;;;;;;;3.75;2.25;;;;;;;;5061714;28;45355;-82
2021/06/28 03:48:55;;;;;;;;;2.50;2.25;;;;;;;;5065641;28;45445;-83
2021/06/28 03:51:20;;;;;;;;;5.00;3.00;;;;;;;;5056832;28;45618;-82
2021/06/28 03:53:45;;;;;;;;;2.00;2.00;;;;;;;;5053832;28;48111;-82
2021/06/28 03:56:11;;;;;;;;;3.00;3.00;;;;;;;;5058920;28;45422;-82
2021/06/28 03:58:39;;;;;;;;;3.50;2.00;;;;;;;;5051195;28;45335;-84
2021/06/28 04:01:05;;;;;;;;;2.00;2.00;;;;;;;;5053055;28;45562;-82
2021/06/28 04:03:33;;;;;;;;;3.50;1.75;;;;;;;;5053525;28;46057;-82
2021/06/28 04:06:03;;;;;;;;;2.00;2.00;;;;;;;;5055264;28;46731;-81
2021/06/28 04:08:28;;;;;;;;;2.25;2.25;;;;;;;;5056895;27;45860;-82
2021/06/28 04:10:53;;;;;;;;;2.00;2.00;;;;;;;;5058067;28;45548;-81
2021/06/28 04:13:19;;;;;;;;;5.00;3.00;;;;;;;;5061152;28;45976;-80
2021/06/28 04:15:44;;;;;;;;;4.00;4.00;;;;;;;;5056129;28;45292;-83
2021/06/28 04:18:09;;;;;;;;;2.50;2.50;;;;;;;;5052195;28;45335;-81
2021/06/28 04:20:35;;;;;;;;;4.00;3.00;;;;;;;;5048449;28;45654;-81
2021/06/28 04:23:00;;;;;;;;;3.00;2.00;;;;;;;;5051583;28;45554;-82
2021/06/28 04:25:25;;;;;;;;;5.67;2.67;;;;;;;;5039572;28;45380;-81
2021/06/28 04:27:51;;;;;;;;;4.00;3.00;;;;;;;;5053324;28;45464;-84
2021/06/28 04:30:18;;;;;;;;;5.25;4.00;;;;;;;;5051364;28;46633;-80
2021/06/28 04:32:43;;;;;;;;;2.25;2.25;;;;;;;;5053790;28;46102;-81
2021/06/28 04:35:10;;;;;;;;;3.50;3.50;;;;;;;;5059307;28;45509;-82
2021/06/28 04:37:36;;;;;;;;;3.25;3.00;;;;;;;;5061410;28;45497;-82
2021/06/28 04:40:03;;;;;;;;;3.00;2.00;;;;;;;;5061916;28;45453;-82
2021/06/28 04:42:28;;;;;;;;;6.50;4.25;;;;;;;;5060022;28;45536;-83
2021/06/28 04:44:53;;;;;;;;;3.00;3.00;;;;;;;;5050219;28;45474;-81
2021/06/28 04:47:18;;;;;;;;;3.67;2.00;;;;;;;;5051404;28;45390;-83
2021/06/28 04:49:43;;;;;;;;;2.00;2.00;;;;;;;;5051006;28;45467;-80
2021/06/28 04:52:09;;;;;;;;;6.00;4.00;;;;;;;;5047015;28;45423;-80
2021/06/28 04:54:34;;;;;;;;;6.00;4.00;;;;;;;;5062951;28;45482;-82
2021/06/28 04:56:59;;;;;;;;;4.33;2.33;;;;;;;;5055357;28;45805;-80
2021/06/28 04:59:24;;;;;;;;;4.00;2.00;;;;;;;;5050695;28;45627;-82
2021/06/28 05:01:50;;;;;;;;;3.00;3.00;;;;;;;;5051882;28;47058;-80
2021/06/28 05:04:15;;;;;;;;;2.33;2.33;;;;;;;;5061628;28;45446;-82
2021/06/28 05:06:40;;;;;;;;;5.00;3.00;;;;;;;;5061413;28;45450;-81
2021/06/28 05:09:05;;;;;;;;;4.00;2.75;;;;;;;;5055109;27;45401;-81
2021/06/28 05:11:31;;;;;;;;;3.00;3.00;;;;;;;;5056032;28;47179;-84
2021/06/28 05:13:56;;;;;;;;;6.33;3.33;;;;;;;;5061410;28;45520;-80
2021/06/28 05:16:21;;;;;;;;;5.33;3.00;;;;;;;;5060412;28;45393;-81
2021/06/28 05:18:46;;;;;;;;;6.00;3.00;;;;;;;;5059268;28;45505;-83
2021/06/28 05:21:11;;;;;;;;;3.00;3.00;;;;;;;;5048110;28;45475;-82
2021/06/28 05:23:37;;;;;;;;;3.00;3.00;;;;;;;;5047368;28;45518;-82
2021/06/28 05:26:02;;;;;;;;;4.33;3.33;;;;;;;;5058207;28;45374;-83
2021/06/28 05:28:27;;;;;;;;;5.00;2.67;;;;;;;;5058126;28;45527;-84
2021/06/28 05:30:53;;;;;;;;;3.00;3.00;;;;;;;;5051549;28;46394;-82
2021/06/28 05:33:18;;;;;;;;;4.00;4.00;;;;;;;;5047708;28;45539;-83
2021/06/28 05:35:43;;;;;;;;;1.33;1.33;;;;;;;;5054928;28;45667;-83
2021/06/28 05:38:08;;;;;;;;;5.25;3.50;;;;;;;;5071023;27;45362;-83
2021/06/28 05:40:34;;;;;;;;;5.00;4.00;;;;;;;;5053481;28;46471;-83
2021/06/28 05:42:59;;;;;;;;;3.00;3.00;;;;;;;;5055438;28;45414;-82
2021/06/28 05:45:25;;;;;;;;;3.00;2.50;;;;;;;;5056688;28;45545;-83
2021/06/28 05:47:50;;;;;;;;;4.00;4.00;;;;;;;;5055322;28;45400;-83
2021/06/28 05:50:18;;;;;;;;;3.75;2.75;;;;;;;;5061741;28;47218;-82
2021/06/28 05:52:44;;;;;;;;;3.00;3.00;;;;;;;;5056970;28;45848;-81
2021/06/28 05:55:09;;;;;;;;;3.50;3.50;;;;;;;;5048292;28;45550;-82
2021/06/28 05:57:35;;;;;;;;;3.00;3.00;;;;;;;;5055021;28;45503;-80
2021/06/28 06:00:00;;;;;;;;;3.00;3.00;;;;;;;;5053873;28;46371;-83
2021/06/28 06:02:25;;;;;;;;;4.33;3.67;;;;;;;;5054537;28;45411;-80
2021/06/28 06:04:50;;;;;;;;;6.75;4.00;;;;;;;;5051255;28;45560;-80
2021/06/28 06:07:16;;;;;;;;;4.00;3.00;;;;;;;;5053819;28;45691;-81
2021/06/28 06:09:41;;;;;;;;;2.50;2.50;;;;;;;;5053628;28;48695;-81
2021/06/28 06:12:07;;;;;;;;;3.33;3.33;;;;;;;;5053189;28;45611;-81
2021/06/28 06:14:32;;;;;;;;;4.00;4.00;;;;;;;;5055141;28;45574;-81
2021/06/28 06:16:58;;;;;;;;;3.25;3.25;;;;;;;;5051232;28;45366;-82
2021/06/28 06:19:24;;;;;;;;;3.75;3.00;;;;;;;;5052480;28;45372;-80
2021/06/28 06:21:49;;;;;;;;;3.00;3.00;;;;;;;;5065949;28;45418;-80
2021/06/28 06:24:14;;;;;;;;;5.25;4.25;;;;;;;;5053053;28;45553;-79
2021/06/28 06:26:40;;;;;;;;;6.00;4.25;;;;;;;;5051966;28;45435;-79
2021/06/28 06:29:05;;;;;;;;;4.25;3.25;;;;;;;;5053312;28;45475;-82
2021/06/28 06:31:31;;;;;;;;;4.00;3.75;;;;;;;;5055666;28;46498;-81
2021/06/28 06:33:56;;;;;;;;;4.50;3.00;;;;;;;;5052266;28;45878;-82
2021/06/28 06:36:21;;;;;;;;;6.33;4.00;;;;;;;;5053134;28;45463;-81
2021/06/28 06:38:47;;;;;;;;;6.00;4.33;;;;;;;;5048981;28;45443;-82
2021/06/28 06:41:12;;;;;;;;;5.00;3.00;;;;;;;;5051611;28;45494;-82
2021/06/28 06:43:37;;;;;;;;;3.75;3.75;;;;;;;;5052628;28;46163;-80
2021/06/28 06:46:03;;;;;;;;;5.75;5.00;;;;;;;;5057691;28;45323;-83
2021/06/28 06:48:28;;;;;;;;;4.50;3.00;;;;;;;;5052026;28;45572;-82
2021/06/28 06:50:53;;;;;;;;;3.67;3.33;;;;;;;;5055459;28;45462;-76
2021/06/28 06:53:18;;;;;;;;;4.00;4.00;;;;;;;;5061192;28;45500;-83
2021/06/28 06:55:45;;;;;;;;;5.00;4.00;;;;;;;;5064799;28;45730;-82
2021/06/28 06:58:10;;;;;;;;;3.50;3.25;;;;;;;;5064209;28;46472;-82
2021/06/28 07:00:37;;;;;;;;;3.50;3.50;;;;;;;;5045280;28;45756;-81
2021/06/28 07:03:03;;;;;;;;;5.75;3.25;;;;;;;;5058313;28;45653;-81
2021/06/28 07:05:28;;;;;;;;;4.00;2.50;;;;;;;;5057981;27;45502;-81
2021/06/28 07:07:53;;;;;;;;;6.00;4.00;;;;;;;;5063274;28;46006;-81
2021/06/28 07:10:18;;;;;;;;;4.33;4.33;;;;;;;;5053191;28;45442;-82
2021/06/28 07:12:44;;;;;;;;;3.67;3.67;;;;;;;;5064054;28;45637;-81
2021/06/28 07:15:11;;;;;;;;;5.50;4.25;;;;;;;;5057654;28;45465;-82
2021/06/28 07:17:36;;;;;;;;;4.00;3.50;;;;;;;;5056752;27;47006;-82
2021/06/28 07:20:04;;;;;;;;;3.00;3.00;;;;;;;;5062967;28;48963;-81
2021/06/28 07:22:29;;;;;;;;;4.00;3.00;;;;;;;;5062865;28;45357;-83
2021/06/28 07:24:54;;;;;;;;;5.00;4.00;;;;;;;;5054909;28;45360;-81
2021/06/28 07:27:20;;;;;;;;;3.00;3.00;;;;;;;;5059915;28;45419;-79
2021/06/28 07:29:45;;;;;;;;;4.00;3.00;;;;;;;;5058227;28;45869;-80
2021/06/28 07:32:10;;;;;;;;;4.00;4.00;;;;;;;;5061865;27;45517;-78
2021/06/28 07:34:35;;;;;;;;;2.00;2.00;;;;;;;;5062469;28;45514;-78
2021/06/28 07:37:01;;;;;;;;;3.00;3.00;;;;;;;;5053606;28;46121;-78
2021/06/28 07:39:26;;;;;;;;;0.00;0.00;;;;;;;;5051224;28;45492;-78
2021/06/28 07:41:52;;;;;;;;;3.50;3.50;;;;;;;;5054604;28;45540;-78
2021/06/28 07:44:17;;;;;;;;;5.00;3.00;;;;;;;;5052279;28;45517;-79
2021/06/28 07:46:43;;;;;;;;;3.00;2.00;;;;;;;;5062010;28;46112;-77
2021/06/28 07:49:08;;;;;;;;;3.00;3.00;;;;;;;;5063742;28;45369;-77
2021/06/28 07:51:38;;;;;;;;;7.00;3.00;;;;;;;;5054480;28;45472;-78
2021/06/28 07:54:04;;;;;;;;;3.00;3.00;;;;;;;;5055110;28;45504;-71
2021/06/28 07:56:29;;;;;;;;;3.00;3.00;;;;;;;;5038387;28;46138;-70
2021/06/28 07:58:54;;;;;;;;;4.67;3.67;;;;;;;;5049501;28;45536;-69
2021/06/28 08:01:20;;;;;;;;;5.00;3.00;;;;;;;;5050827;28;45336;-70
2021/06/28 08:03:47;;;;;;;;;4.00;3.00;;;;;;;;5053419;28;45641;-69
2021/06/28 08:06:13;;;;;;;;;5.50;5.00;;;;;;;;5055847;28;45440;-70
2021/06/28 08:08:38;;;;;;;;;5.00;3.25;;;;;;;;5055968;27;45434;-69
2021/06/28 08:11:05;;;;;;;;;3.00;3.00;;;;;;;;5075787;27;45931;-69
2021/06/28 08:13:31;;;;;;;;;7.75;5.75;;;;;;;;5061600;28;45514;-68
2021/06/28 08:15:56;;;;;;;;;3.67;3.00;;;;;;;;5052600;28;45273;-69
2021/06/28 08:18:21;;;;;;;;;5.67;4.00;;;;;;;;5047479;28;45774;-69
2021/06/28 08:20:46;;;;;;;;;3.00;2.00;;;;;;;;5040137;28;46148;-69
2021/06/28 08:23:13;;;;;;;;;2.00;2.00;;;;;;;;5045561;28;45348;-69
2021/06/28 08:25:39;;;;;;;;;4.25;3.00;;;;;;;;5061209;28;45936;-69
2021/06/28 08:28:06;;;;;;;;;3.00;3.00;;;;;;;;5062924;28;45285;-70
2021/06/28 08:30:32;;;;;;;;;3.00;2.75;;;;;;;;5059875;28;45713;-69
2021/06/28 08:32:57;;;;;;;;;3.00;3.00;;;;;;;;5046071;27;45516;-70
2021/06/28 08:35:22;;;;;;;;;3.00;3.00;;;;;;;;5050703;28;45990;-69
2021/06/28 08:37:48;;;;;;;;;3.00;3.00;;;;;;;;5053935;28;45484;-70
2021/06/28 08:40:13;;;;;;;;;2.00;2.00;;;;;;;;5051668;28;45378;-68
2021/06/28 08:42:39;;;;;;;;;3.00;3.00;;;;;;;;5055655;28;45404;-70
2021/06/28 08:45:05;;;;;;;;;2.50;2.00;;;;;;;;5048487;28;45381;-71
2021/06/28 08:47:31;;;;;;;;;2.00;1.75;;;;;;;;5051150;28;45513;-71
2021/06/28 08:49:57;;;;;;;;;2.50;2.25;;;;;;;;5049161;28;45376;-70
2021/06/28 08:52:23;;;;;;;;;1.50;1.50;;;;;;;;5050593;28;45481;-71
2021/06/28 08:54:49;;;;;;;;;5.00;2.00;;;;;;;;5040287;28;45934;-69
2021/06/28 08:57:14;;;;;;;;;1.75;1.75;;;;;;;;5032897;28;45460;-68
2021/06/28 08:59:40;;;;;;;;;2.00;2.00;;;;;;;;5049116;28;45458;-67
2021/06/28 09:02:05;;;;;;;;;1.50;1.50;;;;;;;;5048864;28;45564;-69
2021/06/28 09:04:30;;;;;;;;;1.00;1.00;;;;;;;;5060293;28;45997;-68
2021/06/28 09:07:15;;;;;;;;;8.00;2.00;;;;;;;;5045370;28;46758;-68
2021/06/28 09:09:41;;;;;;;;;6.00;3.00;;;;;;;;5052963;28;45522;-68
2021/06/28 09:12:12;;;;;;;;;2.00;2.00;;;;;;;;5044835;28;45566;-68
2021/06/28 09:14:52;;;;;;;;;1.25;1.25;;;;;;;;5040631;28;45561;-68
2021/06/28 09:17:28;;;;;;;;;2.00;1.75;;;;;;;;5042902;28;45502;-69
2021/06/28 09:20:12;;;;;;;;;1.00;1.00;;;;;;;;5042062;28;45793;-75
2021/06/28 09:22:37;;;;;;;;;2.75;2.50;;;;;;;;5038679;28;45807;-68
2021/06/28 09:25:03;;;;;;;;;2.00;2.00;;;;;;;;5041142;28;45869;-68
2021/06/28 09:27:30;;;;;;;;;2.25;2.25;;;;;;;;5041578;28;45432;-68
2021/06/28 09:29:57;;;;;;;;;2.75;2.00;;;;;;;;5041065;28;45546;-68
2021/06/28 09:32:23;;;;;;;;;2.00;2.00;;;;;;;;5035113;28;45509;-67
2021/06/28 09:34:50;;;;;;;;;2.00;2.00;;;;;;;;5052797;28;47265;-68
2021/06/28 09:37:16;;;;;;;;;2.25;1.25;;;;;;;;5054352;28;45793;-68
2021/06/28 09:39:43;;;;;;;;;3.00;2.00;;;;;;;;5056670;28;45500;-67
2021/06/28 09:42:08;;;;;;;;;2.00;2.00;;;;;;;;5051090;28;45716;-68
2021/06/28 09:44:38;;;;;;;;;2.00;2.00;;;;;;;;5052351;28;46222;-68
2021/06/28 09:47:09;;;;;;;;;2.25;2.25;;;;;;;;5046223;28;45550;-68
2021/06/28 09:49:34;;;;;;;;;3.50;2.25;;;;;;;;5053782;28;45421;-68
2021/06/28 09:51:59;;;;;;;;;4.00;4.00;;;;;;;;5049201;28;45541;-68
2021/06/28 09:54:25;;;;;;;;;3.25;3.00;;;;;;;;5045460;28;46322;-68
2021/06/28 09:56:52;;;;;;;;;4.33;4.33;;;;;;;;5041733;28;45536;-68
2021/06/28 09:59:21;;;;;;;;;4.00;3.00;;;;;;;;5038616;28;45438;-68
2021/06/28 10:01:48;;;;;;;;;5.00;3.25;;;;;;;;5044966;28;46047;-68
2021/06/28 10:04:36;;;;;;;;;3.00;3.00;;;;;;;;5052101;28;46247;-68
2021/06/28 10:07:17;;;;;;;;;6.00;3.00;;;;;;;;5050610;28;45580;-68
2021/06/28 10:09:43;;;;;;;;;4.00;3.00;;;;;;;;5047640;28;45509;-68
2021/06/28 10:12:16;;;;;;;;;3.75;2.25;;;;;;;;5052460;28;45426;-68
2021/06/28 10:14:42;;;;;;;;;2.25;2.25;;;;;;;;5052778;28;46482;-69
2021/06/28 10:17:08;;;;;;;;;2.00;2.00;;;;;;;;5053358;28;45629;-68
2021/06/28 10:19:33;;;;;;;;;2.00;2.00;;;;;;;;5050693;28;45398;-69
2021/06/28 10:21:58;;;;;;;;;3.25;2.00;;;;;;;;5043797;28;45443;-68
2021/06/28 10:24:24;;;;;;;;;3.00;1.75;;;;;;;;5053711;28;45463;-68
2021/06/28 10:26:52;;;;;;;;;2.00;2.00;;;;;;;;5050277;28;45488;-68
2021/06/28 10:29:17;;;;;;;;;2.00;2.00;;;;;;;;5053148;28;45355;-68
2021/06/28 10:31:42;;;;;;;;;2.00;2.00;;;;;;;;5051238;28;45570;-69
2021/06/28 10:34:07;;;;;;;;;2.00;2.00;;;;;;;;5052872;28;46062;-68
2021/06/28 10:36:36;;;;;;;;;2.00;2.00;;;;;;;;5054390;28;45472;-69
2021/06/28 10:39:02;;;;;;;;;3.00;3.00;;;;;;;;5053264;28;49037;-68
2021/06/28 10:41:53;;;;;;;;;4.25;2.00;;;;;;;;5052463;28;47009;-68
2021/06/28 10:44:20;;;;;;;;;3.00;3.00;;;;;;;;5049863;28;46400;-68
2021/06/28 10:46:49;;;;;;;;;4.00;3.75;;;;;;;;5052499;28;45613;-68
2021/06/28 10:49:14;;;;;;;;;2.00;1.75;;;;;;;;5053186;28;45606;-67
2021/06/28 10:51:48;;;;;;;;;2.50;2.50;;;;;;;;5041752;28;45796;-67
2021/06/28 10:54:34;;;;;;;;;2.25;2.25;;;;;;;;5051660;28;46523;-67
2021/06/28 10:57:01;;;;;;;;;2.00;1.25;;;;;;;;5050214;28;45745;-67
2021/06/28 10:59:27;;;;;;;;;2.25;2.25;;;;;;;;5042676;28;45363;-67
2021/06/28 11:01:57;;;;;;;;;3.50;2.00;;;;;;;;5053473;28;45585;-66
2021/06/28 11:04:24;;;;;;;;;2.75;2.75;;;;;;;;5050450;28;45678;-67
2021/06/28 11:06:52;;;;;;;;;1.50;1.50;;;;;;;;5053950;28;45439;-68
2021/06/28 11:09:32;;;;;;;;;2.00;2.00;;;;;;;;5049834;28;45489;-67
2021/06/28 11:11:58;;;;;;;;;3.00;2.00;;;;;;;;5051564;28;45516;-67
2021/06/28 11:14:23;;;;;;;;;3.00;3.00;;;;;;;;5052365;28;46079;-67
2021/06/28 11:16:58;;;;;;;;;2.00;2.00;;;;;;;;5052669;28;45410;-68
2021/06/28 11:19:58;;;;;;;;;5.00;2.00;;;;;;;;5045589;28;46562;-77
2021/06/28 11:22:27;;;;;;;;;2.25;1.00;;;;;;;;5066621;27;45718;-80
2021/06/28 11:25:00;;;;;;;;;1.25;1.00;;;;;;;;5047595;28;45766;-79
2021/06/28 11:27:25;;;;;;;;;2.00;2.00;;;;;;;;5040525;28;45988;-81
2021/06/28 11:29:53;;;;;;;;;3.00;2.00;;;;;;;;5048838;28;45642;-81
2021/06/28 11:32:19;;;;;;;;;1.00;1.00;;;;;;;;5047308;28;49350;-80
2021/06/28 11:34:44;;;;;;;;;2.00;2.00;;;;;;;;5050044;28;45735;-82
2021/06/28 11:37:10;;;;;;;;;2.00;2.00;;;;;;;;5051441;28;45493;-80
2021/06/28 11:39:35;;;;;;;;;2.67;2.67;;;;;;;;5052319;28;45765;-80
2021/06/28 11:42:18;;;;;;;;;1.00;1.00;;;;;;;;5053052;28;45426;-77
2021/06/28 11:44:50;;;;;;;;;2.00;2.00;;;;;;;;5048550;28;46041;-80
2021/06/28 11:47:16;;;;;;;;;3.00;2.00;;;;;;;;5045930;28;46078;-80
2021/06/28 11:49:41;;;;;;;;;2.00;2.00;;;;;;;;5050317;28;45371;-78
2021/06/28 11:52:13;;;;;;;;;1.00;1.00;;;;;;;;5051706;28;45743;-80
2021/06/28 11:54:38;;;;;;;;;2.25;2.25;;;;;;;;5053440;28;46430;-79
2021/06/28 11:57:06;;;;;;;;;4.50;1.50;;;;;;;;5048119;28;45608;-79
2021/06/28 11:59:32;;;;;;;;;3.00;1.25;;;;;;;;5047492;28;45387;-57
2021/06/28 12:01:59;;;;;;;;;1.75;1.75;;;;;;;;5045405;28;45387;-62
2021/06/28 12:04:26;;;;;;;;;1.00;1.00;;;;;;;;5055106;28;47189;-64
2021/06/28 12:06:52;;;;;;;;;2.00;2.00;;;;;;;;5053461;28;45574;-64
2021/06/28 12:09:19;;;;;;;;;1.00;1.00;;;;;;;;5048729;28;45700;-64
2021/06/28 12:11:57;;;;;;;;;1.25;1.25;;;;;;;;5050470;28;45394;-64
2021/06/28 12:14:38;;;;;;;;;1.75;1.75;;;;;;;;5042228;28;46276;-63
2021/06/28 12:17:07;;;;;;;;;1.75;1.00;;;;;;;;5046399;28;45505;-64
2021/06/28 12:19:33;;;;;;;;;1.75;1.75;;;;;;;;5051278;28;45710;-64
2021/06/28 12:22:06;;;;;;;;;2.00;2.00;;;;;;;;5049072;28;45500;-64
2021/06/28 12:24:31;;;;;;;;;2.00;2.00;;;;;;;;5044961;28;46314;-64
2021/06/28 12:27:01;;;;;;;;;1.25;1.25;;;;;;;;5048902;28;45497;-73
2021/06/28 12:29:37;;;;;;;;;3.50;1.25;;;;;;;;5048306;28;45489;-74
2021/06/28 12:32:06;;;;;;;;;1.25;1.25;;;;;;;;5041769;28;45511;-74
2021/06/28 12:34:32;;;;;;;;;2.00;1.00;;;;;;;;5045251;28;46331;-73
2021/06/28 12:36:58;;;;;;;;;2.75;2.00;;;;;;;;5046328;28;45531;-75
2021/06/28 12:39:25;;;;;;;;;3.00;1.00;;;;;;;;5046066;28;45540;-67
2021/06/28 12:41:50;;;;;;;;;1.75;1.50;;;;;;;;5045851;28;45577;-64
2021/06/28 12:44:16;;;;;;;;;1.00;1.00;;;;;;;;5043235;28;46199;-67
2021/06/28 12:46:42;;;;;;;;;1.75;1.75;;;;;;;;5046661;28;45485;-67
2021/06/28 12:49:08;;;;;;;;;0.75;0.75;;;;;;;;5062073;28;45583;-65
2021/06/28 12:51:33;;;;;;;;;0.50;0.50;;;;;;;;5046217;28;45584;-67
2021/06/28 12:53:58;;;;;;;;;0.75;0.75;;;;;;;;5051080;28;45276;-67
2021/06/28 12:56:30;;;;;;;;;1.00;1.00;;;;;;;;5047855;28;45386;-67
2021/06/28 12:58:57;;;;;;;;;0.75;0.75;;;;;;;;5054603;28;45816;-66
2021/06/28 13:01:49;;;;;;;;;0.25;0.25;;;;;;;;5047038;28;45427;-67
2021/06/28 13:04:21;;;;;;;;;0.25;0.25;;;;;;;;5045434;28;46194;-66
2021/06/28 13:06:46;;;;;;;;;0.00;0.00;;;;;;;;5053021;28;45431;-67
2021/06/28 13:09:13;;;;;;;;;0.00;0.00;;;;;;;;5051207;27;45699;-66
2021/06/28 13:11:48;;;;;;;;;1.25;0.75;;;;;;;;5041237;27;45519;-65
2021/06/28 13:14:22;;;;;;;;;0.00;0.00;;;;;;;;5043932;28;47086;-66
2021/06/28 13:17:01;;;;;;;;;0.00;0.00;;;;;;;;5049233;28;45426;-63
2021/06/28 13:19:30;;;;;;;;;0.00;0.00;;;;;;;;5046211;28;45396;-62
2021/06/28 13:21:57;;;;;;;;;0.00;0.00;;;;;;;;5047964;28;45509;-63
2021/06/28 13:24:22;;;;;;;;;1.00;0.00;;;;;;;;5053784;28;45653;-63
2021/06/28 13:26:49;;;;;;;;;0.00;0.00;;;;;;;;5047230;28;45700;-64
2021/06/28 13:29:16;;;;;;;;;0.00;0.00;;;;;;;;5056502;27;45584;-63
2021/06/28 13:31:48;;;;;;;;;0.00;0.00;;;;;;;;5050922;28;45732;-63
2021/06/28 13:34:14;;;;;;;;;0.00;0.00;;;;;;;;5060373;28;45695;-63
2021/06/28 13:36:40;;;;;;;;;0.00;0.00;;;;;;;;5050368;28;45489;-62
2021/06/28 13:39:06;;;;;;;;;0.00;0.00;;;;;;;;5051042;28;45376;-63
2021/06/28 13:41:44;;;;;;;;;0.00;0.00;;;;;;;;5055359;27;45766;-63
2021/06/28 13:44:10;;;;;;;;;0.75;0.00;;;;;;;;5046455;28;46224;-66
2021/06/28 13:46:36;;;;;;;;;0.00;0.00;;;;;;;;5046602;28;45482;-67
2021/06/28 13:49:20;;;;;;;;;0.00;0.00;;;;;;;;5042122;28;45585;-66
2021/06/28 13:51:45;;;;;;;;;0.00;0.00;;;;;;;;5047481;28;45524;-67
2021/06/28 13:54:11;;;;;;;;;0.00;0.00;;;;;;;;5041936;28;45576;-66
2021/06/28 13:56:37;;;;;;;;;0.00;0.00;;;;;;;;5047589;28;45539;-66
2021/06/28 13:59:03;;;;;;;;;0.00;0.00;;;;;;;;5050265;28;45508;-66
2021/06/28 14:01:28;;;;;;;;;0.25;0.25;;;;;;;;5052417;28;45746;-62
2021/06/28 14:03:53;;;;;;;;;0.00;0.00;;;;;;;;5064902;28;45454;-65
2021/06/28 14:06:18;;;;;;;;;0.33;0.33;;;;;;;;5054541;28;45489;-65
2021/06/28 14:08:44;;;;;;;;;0.00;0.00;;;;;;;;5056527;27;45550;-66
2021/06/28 14:11:09;;;;;;;;;0.50;0.50;;;;;;;;5053201;28;45432;-65
2021/06/28 14:13:34;;;;;;;;;0.50;0.50;;;;;;;;5061364;28;46854;-65
2021/06/28 14:16:00;;;;;;;;;1.00;1.00;;;;;;;;5050615;28;45417;-64
2021/06/28 14:18:25;;;;;;;;;1.00;1.00;;;;;;;;5048418;28;45399;-64
2021/06/28 14:20:53;;;;;;;;;1.75;1.75;;;;;;;;5048864;28;45300;-65
2021/06/28 14:23:18;;;;;;;;;0.75;0.75;;;;;;;;5048893;28;46251;-64
2021/06/28 14:25:43;;;;;;;;;0.75;0.75;;;;;;;;5059912;28;45382;-64
2021/06/28 14:28:08;;;;;;;;;1.00;1.00;;;;;;;;5060734;28;45591;-64
2021/06/28 14:30:34;;;;;;;;;0.67;0.67;;;;;;;;5058595;28;45374;-65
2021/06/28 14:32:59;;;;;;;;;0.75;0.75;;;;;;;;5053627;27;46540;-62
2021/06/28 14:35:25;;;;;;;;;0.67;0.67;;;;;;;;5055368;28;45342;-62
2021/06/28 14:37:50;;;;;;;;;2.25;1.50;;;;;;;;5057231;28;45507;-62
2021/06/28 14:40:16;;;;;;;;;0.00;0.00;;;;;;;;5059692;28;45664;-61